Time;durP1;ratioP1;P1;durP2;ratioP2;P2;SDS_P1;SDS_P2;PMS_P1;PMS_P2;Temp;Humidity;BMP_temperature;BMP_pressure;BME280_temperature;BME280_humidity;BME280_pressure;Samples;Min_cycle;Max_cycle;Signal;HPM_P1;HPM_P2
2022/12/11 00:02:03;;;;;;;3.80;2.38;;;;;;;1.56;84.82;100488.09;4974918;28;20522;-66
2022/12/11 00:04:29;;;;;;;7.82;2.58;;;;;;;1.48;84.96;100491.47;4978940;28;20035;-66
2022/12/11 00:06:55;;;;;;;4.22;2.28;;;;;;;1.48;84.96;100486.16;4973868;28;20050;-66
2022/12/11 00:09:20;;;;;;;4.35;2.38;;;;;;;1.52;85.31;100485.28;4959135;28;20069;-65
2022/12/11 00:11:47;;;;;;;5.65;2.88;;;;;;;1.57;85.15;100489.66;4991807;28;20060;-66
2022/12/11 00:14:13;;;;;;;7.07;2.13;;;;;;;1.55;85.29;100487.31;4999784;28;20057;-66
2022/12/11 00:16:41;;;;;;;5.80;2.38;;;;;;;1.59;84.74;100490.16;4989481;28;20034;-66
2022/12/11 00:19:07;;;;;;;4.57;2.50;;;;;;;1.61;84.45;100483.47;4989894;28;20037;-66
2022/12/11 00:21:33;;;;;;;5.47;3.38;;;;;;;1.57;84.51;100479.84;4994684;28;20030;-66
2022/12/11 00:23:59;;;;;;;4.35;3.35;;;;;;;1.54;84.89;100480.44;4990895;28;20096;-66
2022/12/11 00:26:25;;;;;;;10.77;3.03;;;;;;;1.44;85.41;100482.53;4991509;28;20606;-66
2022/12/11 00:28:56;;;;;;;5.40;3.25;;;;;;;1.57;85.00;100490.44;4985632;28;20112;-66
2022/12/11 00:31:22;;;;;;;2.95;2.20;;;;;;;1.60;85.15;100473.94;4990471;28;20454;-66
2022/12/11 00:33:48;;;;;;;4.00;2.13;;;;;;;1.55;84.54;100487.31;4986376;28;20037;-66
2022/12/11 00:36:17;;;;;;;9.57;1.80;;;;;;;1.48;85.05;100480.84;4987983;28;20627;-66
2022/12/11 00:38:43;;;;;;;6.45;2.72;;;;;;;1.48;85.15;100488.81;4988629;28;20392;-66
2022/12/11 00:41:09;;;;;;;3.50;1.50;;;;;;;1.45;85.53;100484.88;4989280;28;20554;-66
2022/12/11 00:43:35;;;;;;;6.28;3.58;;;;;;;1.40;85.38;100485.00;4991924;28;20399;-66
2022/12/11 00:46:01;;;;;;;3.13;2.33;;;;;;;1.34;85.86;100483.53;4991970;28;20038;-66
2022/12/11 00:48:26;;;;;;;4.35;2.67;;;;;;;1.45;86.02;100484.09;4989861;28;20109;-66
2022/12/11 00:50:52;;;;;;;8.82;3.60;;;;;;;1.47;85.80;100485.34;4990883;28;20114;-66
2022/12/11 00:53:17;;;;;;;4.78;2.63;;;;;;;1.37;85.49;100474.19;4991649;28;20153;-66
2022/12/11 00:55:43;;;;;;;7.70;2.90;;;;;;;1.45;85.65;100482.22;5000122;28;20038;-66
2022/12/11 00:58:10;;;;;;;6.47;2.90;;;;;;;1.46;85.61;100483.00;5001904;28;20103;-66
2022/12/11 01:00:39;;;;;;;7.18;1.98;;;;;;;1.32;86.11;100479.59;4997723;28;20506;-66
2022/12/11 01:03:05;;;;;;;5.05;2.53;;;;;;;1.46;86.08;100486.47;4981352;28;20034;-66
2022/12/11 01:05:31;;;;;;;3.55;1.90;;;;;;;1.49;85.75;100488.50;4997631;28;20044;-66
2022/12/11 01:07:57;;;;;;;5.43;2.00;;;;;;;1.51;85.59;100486.34;4999581;28;20030;-66
2022/12/11 01:10:25;;;;;;;4.60;2.80;;;;;;;1.55;85.04;100479.34;4993745;28;20039;-66
2022/12/11 01:12:58;;;;;;;4.47;2.00;;;;;;;1.60;84.85;100489.06;4992019;28;20031;-66
2022/12/11 01:15:26;;;;;;;2.22;1.40;;;;;;;1.42;85.01;100484.69;4990705;28;20038;-66
2022/12/11 01:17:53;;;;;;;3.55;1.77;;;;;;;1.55;84.72;100487.31;5002978;28;20379;-66
2022/12/11 01:20:20;;;;;;;3.40;2.30;;;;;;;1.48;84.56;100491.47;4986774;28;20116;-66
2022/12/11 01:22:45;;;;;;;3.47;2.17;;;;;;;1.37;84.94;100480.28;4993368;28;20026;-65
2022/12/11 01:25:11;;;;;;;6.63;2.25;;;;;;;1.40;85.07;100482.34;4988641;28;20041;-66
2022/12/11 01:27:39;;;;;;;4.25;2.10;;;;;;;1.44;84.61;100485.97;4988406;28;20061;-66
2022/12/11 01:30:07;;;;;;;5.80;2.80;;;;;;;1.53;84.58;100489.47;4983703;28;20338;-66
2022/12/11 01:32:34;;;;;;;12.50;3.90;;;;;;;1.47;84.27;100482.72;4980622;28;20049;-66
2022/12/11 01:35:01;;;;;;;11.57;3.50;;;;;;;1.47;84.50;100479.28;4987512;28;20037;-66
2022/12/11 01:37:27;;;;;;;7.95;2.70;;;;;;;1.51;84.54;100485.56;4982220;28;20570;-66
2022/12/11 01:39:52;;;;;;;4.68;2.10;;;;;;;1.47;83.95;100490.66;4980395;28;20042;-66
2022/12/11 01:42:19;;;;;;;1.40;1.30;;;;;;;1.44;84.03;100493.94;4997544;28;20038;-66
2022/12/11 01:44:45;;;;;;;5.22;2.45;;;;;;;1.43;84.20;100484.38;4994467;28;20421;-66
2022/12/11 01:47:11;;;;;;;3.92;2.20;;;;;;;1.45;84.24;100498.13;4990089;28;20038;-66
2022/12/11 01:49:39;;;;;;;5.90;2.20;;;;;;;1.58;83.84;100496.53;4983269;28;20077;-66
2022/12/11 01:52:17;;;;;;;3.80;2.15;;;;;;;1.53;83.57;100500.09;4994015;28;20466;-66
2022/12/11 01:54:43;;;;;;;2.05;1.75;;;;;;;1.48;83.43;100497.56;4990113;28;20494;-66
2022/12/11 01:57:10;;;;;;;5.20;2.17;;;;;;;1.53;83.82;100499.31;4990504;28;20073;-66
2022/12/11 01:59:40;;;;;;;4.68;2.47;;;;;;;1.57;83.87;100490.44;4991584;28;20100;-66
2022/12/11 02:02:10;;;;;;;3.92;2.00;;;;;;;1.51;83.92;100489.00;4988576;28;20038;-65
2022/12/11 02:04:38;;;;;;;7.68;2.80;;;;;;;1.52;83.29;100487.13;4996870;28;20053;-66
2022/12/11 02:07:04;;;;;;;7.25;3.60;;;;;;;1.49;83.76;100485.09;4997468;28;20438;-66
2022/12/11 02:09:31;;;;;;;3.53;1.92;;;;;;;1.47;82.89;100485.34;4991215;28;20030;-66
2022/12/11 02:12:03;;;;;;;7.22;2.25;;;;;;;1.39;83.62;100488.75;4991579;28;20380;-66
2022/12/11 02:14:50;;;;;;;5.63;1.98;;;;;;;1.36;83.67;100473.41;4995562;28;20040;-66
2022/12/11 02:17:21;;;;;;;6.15;1.95;;;;;;;1.39;83.62;100475.47;4995301;28;20443;-66
2022/12/11 02:20:22;;;;;;;2.92;1.83;;;;;;;1.34;83.96;100469.47;4990583;28;20061;-66
2022/12/11 02:23:02;;;;;;;2.83;2.03;;;;;;;1.42;83.63;100477.53;4991528;28;20030;-66
2022/12/11 02:25:46;;;;;;;4.75;3.00;;;;;;;1.40;83.51;100474.38;4983678;28;20403;-66
2022/12/11 02:28:41;;;;;;;4.10;2.20;;;;;;;1.45;83.74;100473.50;4991169;28;20042;-66
2022/12/11 02:31:17;;;;;;;4.22;2.15;;;;;;;1.47;83.22;100474.75;4958146;28;20046;-66
2022/12/11 02:33:49;;;;;;;6.47;2.97;;;;;;;1.40;83.93;100478.91;4991144;28;20030;-66
2022/12/11 02:36:17;;;;;;;2.40;2.00;;;;;;;1.39;84.26;100485.28;4989287;28;20116;-66
2022/12/11 02:38:49;;;;;;;6.97;2.60;;;;;;;1.41;83.93;100485.78;4989466;28;20030;-66
2022/12/11 02:41:18;;;;;;;4.60;2.20;;;;;;;1.44;84.19;100480.66;4987202;28;20076;-66
2022/12/11 02:43:45;;;;;;;4.32;2.83;;;;;;;1.41;84.71;100480.47;4990185;28;20380;-67
2022/12/11 02:46:11;;;;;;;5.95;2.42;;;;;;;1.46;84.34;100477.72;4990579;28;20498;-65
2022/12/11 02:48:40;;;;;;;5.22;2.50;;;;;;;1.47;84.34;100466.78;4989788;28;20037;-66
2022/12/11 02:51:08;;;;;;;4.03;2.75;;;;;;;1.47;84.73;100464.13;4989296;28;20038;-66
2022/12/11 02:53:40;;;;;;;4.65;2.95;;;;;;;1.38;84.95;100471.25;4973835;28;20122;-65
2022/12/11 02:56:11;;;;;;;5.50;1.80;;;;;;;1.28;85.45;100462.72;4989163;28;20038;-66
2022/12/11 02:58:44;;;;;;;7.07;2.72;;;;;;;1.28;85.90;100466.16;4977061;28;20022;-66
2022/12/11 03:01:10;;;;;;;5.55;2.55;;;;;;;1.32;85.61;100471.63;4978276;28;20534;-66
2022/12/11 03:03:35;;;;;;;3.05;1.92;;;;;;;1.31;85.57;100476.19;4990669;28;20038;-66
2022/12/11 03:06:02;;;;;;;7.80;3.05;;;;;;;1.39;86.23;100474.69;4989344;28;20483;-66
2022/12/11 03:08:28;;;;;;;5.93;3.28;;;;;;;1.39;86.18;100472.03;5002954;28;20129;-66
2022/12/11 03:10:53;;;;;;;4.32;2.63;;;;;;;1.39;85.64;100470.19;4990731;28;20121;-66
2022/12/11 03:13:21;;;;;;;3.65;2.22;;;;;;;1.43;85.50;100475.66;4991603;28;20050;-66
2022/12/11 03:16:28;;;;;;;6.22;2.75;;;;;;;1.31;85.72;100483.34;4989425;28;20074;-66
2022/12/11 03:18:57;;;;;;;5.10;2.78;;;;;;;1.32;86.47;100484.91;4970162;28;20039;-66
2022/12/11 03:21:53;;;;;;;3.17;1.95;;;;;;;1.32;86.63;100480.38;4987379;28;20038;-66
2022/12/11 03:24:18;;;;;;;3.38;2.58;;;;;;;1.38;86.22;100483.72;4973811;28;20058;-66
2022/12/11 03:26:54;;;;;;;3.10;1.73;;;;;;;1.32;86.37;100472.44;4992174;28;20034;-66
2022/12/11 03:29:24;;;;;;;5.68;2.50;;;;;;;1.40;86.20;100470.94;4993088;28;20037;-66
2022/12/11 03:32:00;;;;;;;3.60;1.65;;;;;;;1.54;86.34;100469.03;4987625;28;20109;-66
2022/12/11 03:34:36;;;;;;;3.70;1.67;;;;;;;1.46;86.11;100467.88;5002346;28;20061;-66
2022/12/11 03:37:06;;;;;;;5.43;2.67;;;;;;;1.35;86.47;100479.00;4992761;28;20034;-65
2022/12/11 03:39:37;;;;;;;4.85;2.88;;;;;;;1.28;86.69;100471.44;4997494;28;20026;-66
2022/12/11 03:42:07;;;;;;;4.50;2.92;;;;;;;1.33;87.01;100474.00;5004982;28;20117;-66
2022/12/11 03:44:35;;;;;;;4.10;2.22;;;;;;;1.29;86.61;100475.69;5013129;28;20120;-66
2022/12/11 03:47:04;;;;;;;3.78;2.40;;;;;;;1.34;86.65;100469.47;5007612;28;20077;-66
2022/12/11 03:49:35;;;;;;;3.15;2.08;;;;;;;1.39;86.74;100467.53;4984317;28;20031;-66
2022/12/11 03:52:02;;;;;;;5.53;2.33;;;;;;;1.43;85.92;100473.78;5015708;22;20049;-65
2022/12/11 03:54:29;;;;;;;5.35;2.40;;;;;;;1.46;86.14;100472.41;5009095;28;20109;-65
2022/12/11 03:56:57;;;;;;;5.10;2.90;;;;;;;1.44;86.33;100470.06;5003354;28;20458;-65
2022/12/11 03:59:23;;;;;;;2.65;2.45;;;;;;;1.43;85.89;100478.31;5002958;28;20088;-65
2022/12/11 04:01:49;;;;;;;5.55;2.20;;;;;;;1.36;85.53;100472.63;5019383;28;20498;-65
2022/12/11 04:04:14;;;;;;;3.80;2.40;;;;;;;1.35;85.59;100469.19;4992594;28;20038;-65
2022/12/11 04:06:40;;;;;;;6.00;2.92;;;;;;;1.30;86.28;100465.84;4991180;28;20061;-65
2022/12/11 04:09:05;;;;;;;6.75;3.13;;;;;;;1.30;86.15;100457.88;5013868;28;20060;-65
2022/12/11 04:11:34;;;;;;;4.78;2.97;;;;;;;1.35;86.19;100466.56;4991910;28;20129;-65
2022/12/11 04:16:50;;;;;;;6.18;2.47;;;;;;;1.54;86.02;100455.78;4992519;28;20026;-64
2022/12/11 04:24:47;;;;;;;6.50;3.25;;;;;;;1.53;85.52;100455.00;4985278;28;20043;-65
2022/12/11 04:27:13;;;;;;;4.72;3.08;;;;;;;1.54;85.22;100455.78;4985030;28;20251;-65
2022/12/11 04:29:38;;;;;;;7.32;2.50;;;;;;;1.59;83.75;100451.13;4984298;28;20067;-65
2022/12/11 04:32:04;;;;;;;9.07;3.17;;;;;;;1.48;83.53;100447.16;4988701;28;20037;-64
2022/12/11 04:34:29;;;;;;;8.73;2.90;;;;;;;1.50;83.66;100449.50;4996778;28;20035;-65
2022/12/11 04:36:55;;;;;;;3.45;2.45;;;;;;;1.50;83.94;100452.94;4990797;28;20387;-65
2022/12/11 04:39:20;;;;;;;2.92;2.10;;;;;;;1.51;83.74;100443.91;4982758;28;20041;-65
2022/12/11 04:41:45;;;;;;;4.13;2.00;;;;;;;1.45;83.65;100450.38;4991317;28;20061;-65
2022/12/11 04:44:11;;;;;;;6.78;2.50;;;;;;;1.42;84.15;100451.00;4992091;28;20046;-65
2022/12/11 04:46:36;;;;;;;4.50;3.03;;;;;;;1.50;84.47;100447.66;4991748;28;20041;-65
2022/12/11 04:49:02;;;;;;;7.97;3.05;;;;;;;1.46;84.34;100446.66;5002202;28;20034;-65
2022/12/11 04:51:28;;;;;;;4.15;2.35;;;;;;;1.37;84.23;100450.34;4989780;28;20053;-65
2022/12/11 04:53:53;;;;;;;3.08;2.80;;;;;;;1.39;84.14;100451.63;4990447;28;20487;-65
2022/12/11 04:56:20;;;;;;;4.60;3.08;;;;;;;1.38;83.57;100451.88;4988273;28;20428;-65
2022/12/11 04:58:46;;;;;;;5.85;3.30;;;;;;;1.38;83.68;100446.59;4974362;28;20033;-65
2022/12/11 05:01:20;;;;;;;6.40;3.80;;;;;;;1.26;82.96;100451.63;4983546;28;20042;-65
2022/12/11 05:03:46;;;;;;;7.30;2.85;;;;;;;1.21;82.53;100449.88;4992533;28;20046;-65
2022/12/11 05:06:12;;;;;;;5.80;3.25;;;;;;;1.30;82.40;100445.44;4987193;28;20112;-65
2022/12/11 05:08:39;;;;;;;4.35;2.70;;;;;;;1.29;82.68;100441.22;4984661;28;20037;-65
2022/12/11 05:11:08;;;;;;;5.32;2.70;;;;;;;1.41;81.99;100444.16;4991328;28;20125;-64
2022/12/11 05:13:34;;;;;;;7.88;2.83;;;;;;;1.38;81.24;100444.72;4990438;28;20080;-64
2022/12/11 05:16:03;;;;;;;7.60;3.30;;;;;;;1.23;81.14;100441.63;4990862;28;20026;-65
2022/12/11 05:18:28;;;;;;;3.30;2.28;;;;;;;1.28;81.37;100439.63;5002212;28;20120;-65
2022/12/11 05:21:07;;;;;;;6.30;2.55;;;;;;;1.38;81.37;100449.22;4991044;28;20117;-65
2022/12/11 05:23:33;;;;;;;8.93;3.53;;;;;;;1.43;81.69;100449.13;4991940;28;20030;-65
2022/12/11 05:26:03;;;;;;;5.07;2.83;;;;;;;1.42;81.69;100445.69;4989045;28;20034;-65
2022/12/11 05:28:31;;;;;;;4.10;2.33;;;;;;;1.38;81.21;100444.72;4987343;28;20561;-65
2022/12/11 05:31:13;;;;;;;7.13;3.05;;;;;;;1.37;80.40;100448.47;4982514;28;20038;-65
2022/12/11 05:33:38;;;;;;;5.40;3.00;;;;;;;1.31;79.57;100439.06;5004049;28;20030;-65
2022/12/11 05:36:06;;;;;;;5.43;2.65;;;;;;;1.25;79.85;100440.25;4990621;28;20501;-65
2022/12/11 05:38:31;;;;;;;12.93;2.97;;;;;;;1.27;79.67;100432.78;4982294;28;20484;-65
2022/12/11 05:40:59;;;;;;;4.30;3.10;;;;;;;1.28;79.34;100436.97;4985558;28;20177;-65
2022/12/11 05:43:26;;;;;;;4.60;2.33;;;;;;;1.24;79.42;100429.94;4990762;28;20070;-64
2022/12/11 05:45:52;;;;;;;4.85;2.67;;;;;;;1.22;79.62;100434.75;4991706;28;20041;-65
2022/12/11 05:48:17;;;;;;;6.28;3.28;;;;;;;1.21;79.20;100428.66;4980810;28;20038;-65
2022/12/11 05:50:42;;;;;;;3.50;2.92;;;;;;;1.10;79.46;100426.53;5004375;28;20035;-65
2022/12/11 05:53:08;;;;;;;5.75;3.22;;;;;;;0.95;79.77;100430.25;4991307;28;20045;-65
2022/12/11 05:55:34;;;;;;;5.50;2.58;;;;;;;0.85;79.81;100423.31;4990286;28;20088;-64
2022/12/11 05:58:00;;;;;;;4.38;2.05;;;;;;;0.77;80.70;100429.28;4974063;28;20031;-64
2022/12/11 06:00:25;;;;;;;4.97;3.25;;;;;;;0.70;81.19;100428.91;4979690;28;20076;-65
2022/12/11 06:02:51;;;;;;;4.55;2.97;;;;;;;0.61;81.15;100432.53;4990355;28;20037;-65
2022/12/11 06:05:16;;;;;;;7.65;3.47;;;;;;;0.54;81.50;100430.25;4990672;28;20038;-65
2022/12/11 06:07:42;;;;;;;8.23;2.92;;;;;;;0.47;81.55;100432.53;4986490;28;20403;-64
2022/12/11 06:10:07;;;;;;;6.57;3.15;;;;;;;0.39;82.30;100437.69;4981933;28;20445;-65
2022/12/11 06:12:33;;;;;;;7.70;2.72;;;;;;;0.37;82.43;100450.47;4989445;28;20093;-65
2022/12/11 06:14:58;;;;;;;3.95;2.28;;;;;;;0.33;82.82;100441.53;4990209;28;20117;-65
2022/12/11 06:17:24;;;;;;;4.93;2.42;;;;;;;0.36;82.69;100451.53;4985567;28;20030;-67
2022/12/11 06:19:49;;;;;;;5.30;2.88;;;;;;;0.46;82.07;100451.34;4987932;28;20037;-66
2022/12/11 06:22:14;;;;;;;3.88;2.58;;;;;;;0.46;82.22;100446.06;4990429;28;20034;-66
2022/12/11 06:24:40;;;;;;;2.95;2.08;;;;;;;0.62;81.53;100442.81;4990105;28;20042;-66
2022/12/11 06:27:05;;;;;;;4.95;2.63;;;;;;;0.56;80.87;100444.00;4981786;28;20820;-66
2022/12/11 06:29:31;;;;;;;4.20;3.42;;;;;;;0.47;81.41;100450.25;4988390;28;20023;-66
2022/12/11 06:31:56;;;;;;;5.97;1.98;;;;;;;0.39;81.94;100448.28;4991160;28;20549;-66
2022/12/11 06:34:22;;;;;;;4.13;3.05;;;;;;;0.46;81.60;100448.72;4981026;28;20664;-66
2022/12/11 06:36:47;;;;;;;5.15;3.03;;;;;;;0.40;81.74;100452.53;4979168;28;20030;-66
2022/12/11 06:39:13;;;;;;;2.17;1.98;;;;;;;0.30;81.95;100456.13;4979249;28;20395;-65
2022/12/11 06:41:38;;;;;;;5.18;2.97;;;;;;;0.21;82.33;100447.31;4990413;28;20403;-66
2022/12/11 06:44:04;;;;;;;5.93;2.67;;;;;;;0.16;82.92;100451.88;4989424;28;20411;-66
2022/12/11 06:46:30;;;;;;;7.25;3.10;;;;;;;0.08;83.57;100447.28;4984437;28;20101;-66
2022/12/11 06:48:56;;;;;;;7.43;3.30;;;;;;;-0.06;84.18;100441.94;4989259;28;20034;-66
2022/12/11 06:51:22;;;;;;;9.70;3.13;;;;;;;-0.15;84.68;100443.66;5002329;28;20042;-66
2022/12/11 06:53:55;;;;;;;12.38;2.70;;;;;;;-0.16;84.94;100450.81;4984775;28;20038;-66
2022/12/11 06:56:22;;;;;;;4.32;2.40;;;;;;;-0.23;85.89;100450.38;4989642;28;20038;-65
2022/12/11 06:58:48;;;;;;;2.30;1.88;;;;;;;-0.34;85.89;100446.34;4983123;28;20035;-65
2022/12/11 07:01:25;;;;;;;3.78;2.78;;;;;;;-0.28;86.39;100450.47;4985159;28;20045;-65
2022/12/11 07:03:56;;;;;;;3.40;2.88;;;;;;;-0.26;86.22;100455.47;5007010;28;20044;-66
2022/12/11 07:06:23;;;;;;;4.60;2.50;;;;;;;-0.27;85.88;100457.31;4992867;28;20213;-65
2022/12/11 07:08:49;;;;;;;7.22;4.47;;;;;;;-0.28;86.61;100471.63;4984817;28;20031;-65
2022/12/11 07:11:16;;;;;;;4.78;2.22;;;;;;;-0.23;85.95;100460.97;4982975;28;20345;-65
2022/12/11 07:13:42;;;;;;;6.78;3.72;;;;;;;-0.21;86.88;100473.91;4994067;28;20038;-65
2022/12/11 07:16:10;;;;;;;4.32;2.45;;;;;;;-0.20;86.23;100473.63;4990775;28;20057;-65
2022/12/11 07:18:37;;;;;;;3.10;2.13;;;;;;;-0.08;86.40;100476.59;4988579;28;20118;-65
2022/12/11 07:21:04;;;;;;;3.22;2.53;;;;;;;-0.11;85.82;100482.47;4987489;28;20035;-65
2022/12/11 07:23:29;;;;;;;8.65;2.40;;;;;;;-0.16;86.18;100479.13;4979300;28;20042;-65
2022/12/11 07:25:55;;;;;;;4.40;3.10;;;;;;;-0.14;85.74;100483.06;5003809;28;20034;-65
2022/12/11 07:28:21;;;;;;;5.55;3.13;;;;;;;-0.17;86.14;100493.41;4992106;28;20117;-65
2022/12/11 07:30:47;;;;;;;5.35;3.03;;;;;;;-0.18;85.83;100499.78;4985449;28;20031;-66
2022/12/11 07:33:12;;;;;;;4.65;2.40;;;;;;;-0.15;85.97;100502.63;4978754;28;20065;-65
2022/12/11 07:35:38;;;;;;;5.03;2.92;;;;;;;-0.17;85.88;100504.00;4991765;28;20090;-66
2022/12/11 07:38:04;;;;;;;3.60;2.75;;;;;;;-0.26;86.02;100503.06;4991471;28;20557;-65
2022/12/11 07:40:29;;;;;;;3.90;2.65;;;;;;;-0.26;85.90;100501.22;4988711;28;20034;-66
2022/12/11 07:42:54;;;;;;;2.65;2.33;;;;;;;-0.21;85.67;100506.44;4985766;28;20042;-66
2022/12/11 07:45:20;;;;;;;14.43;5.78;;;;;;;-0.23;86.08;100498.00;4993876;28;20165;-66
2022/12/11 07:47:45;;;;;;;9.10;5.55;;;;;;;-0.36;85.60;100504.00;4992600;28;20045;-66
2022/12/11 07:50:11;;;;;;;9.60;2.78;;;;;;;-0.37;85.73;100491.84;4982152;28;20045;-66
2022/12/11 07:52:36;;;;;;;5.03;3.53;;;;;;;-0.46;85.66;100500.72;4992661;28;20038;-66
2022/12/11 07:55:02;;;;;;;4.32;2.15;;;;;;;-0.54;86.48;100488.91;4986535;28;20088;-66
2022/12/11 07:57:28;;;;;;;4.32;2.13;;;;;;;-0.64;86.49;100483.75;4972381;28;20038;-66
2022/12/11 07:59:54;;;;;;;4.03;2.38;;;;;;;-0.53;85.94;100484.41;4991031;28;20501;-65
2022/12/11 08:02:20;;;;;;;4.60;2.85;;;;;;;-0.53;86.02;100490.50;4983180;28;20034;-65
2022/12/11 08:04:46;;;;;;;3.13;2.38;;;;;;;-0.48;86.22;100485.13;4992527;28;20039;-65
2022/12/11 08:07:11;;;;;;;3.67;2.65;;;;;;;-0.46;86.15;100485.63;4986083;28;20089;-66
2022/12/11 08:09:37;;;;;;;4.10;2.72;;;;;;;-0.46;86.14;100490.91;4984968;28;20038;-66
2022/12/11 08:12:03;;;;;;;9.60;3.03;;;;;;;-0.35;85.55;100481.75;4991819;28;20034;-65
2022/12/11 08:14:28;;;;;;;4.70;2.50;;;;;;;-0.40;86.10;100481.84;4991813;28;20026;-66
2022/12/11 08:16:54;;;;;;;3.50;2.75;;;;;;;-0.49;86.12;100488.84;4989520;28;20084;-65
2022/12/11 08:19:20;;;;;;;5.88;2.15;;;;;;;-0.62;86.64;100494.84;5005668;28;20022;-66
2022/12/11 08:21:45;;;;;;;7.65;2.08;;;;;;;-0.47;86.21;100483.28;4994478;28;20402;-65
2022/12/11 08:24:15;;;;;;;2.08;1.98;;;;;;;-0.44;86.64;100488.78;4990530;28;20026;-66
2022/12/11 08:26:41;;;;;;;6.20;2.65;;;;;;;-0.37;86.06;100483.91;4987255;28;20030;-66
2022/12/11 08:29:06;;;;;;;3.08;2.83;;;;;;;-0.34;86.08;100488.66;4990900;28;20033;-67
2022/12/11 08:31:32;;;;;;;7.68;2.83;;;;;;;-0.35;86.05;100483.66;4989745;28;20547;-65
2022/12/11 08:33:58;;;;;;;8.68;3.00;;;;;;;-0.38;86.09;100482.34;4991115;28;20057;-65
2022/12/11 08:36:24;;;;;;;6.40;2.72;;;;;;;-0.44;86.35;100483.50;4991781;28;20065;-64
2022/12/11 08:38:50;;;;;;;7.00;2.80;;;;;;;-0.45;86.55;100476.66;4973458;28;20497;-65
2022/12/11 08:41:23;;;;;;;6.15;2.92;;;;;;;-0.48;86.26;100476.41;5003640;28;20035;-65
2022/12/11 08:43:51;;;;;;;7.47;3.30;;;;;;;-0.52;86.76;100478.84;4989915;28;20948;-64
2022/12/11 08:46:17;;;;;;;7.13;3.40;;;;;;;-0.45;87.07;100474.00;4991419;28;20550;-64
2022/12/11 08:48:43;;;;;;;6.25;3.35;;;;;;;-0.45;86.86;100478.50;4990848;28;20124;-65
2022/12/11 08:51:12;;;;;;;8.23;3.60;;;;;;;-0.34;86.52;100469.34;4991838;28;20117;-65
2022/12/11 08:53:38;;;;;;;5.75;2.45;;;;;;;-0.43;86.28;100473.72;4990535;28;20030;-64
2022/12/11 08:56:06;;;;;;;5.90;2.40;;;;;;;-0.37;87.23;100468.03;4983942;28;20069;-65
2022/12/11 08:58:32;;;;;;;5.30;2.08;;;;;;;-0.41;87.86;100461.78;4989976;28;20125;-65
2022/12/11 09:00:58;;;;;;;5.93;3.28;;;;;;;-0.03;88.00;100455.38;4986653;28;20105;-65
2022/12/11 09:03:23;;;;;;;10.57;2.55;;;;;;;0.25;87.82;100458.88;4982672;28;20041;-65
2022/12/11 09:05:49;;;;;;;8.73;2.80;;;;;;;0.41;86.77;100469.97;4988446;28;20391;-65
2022/12/11 09:08:15;;;;;;;5.90;2.67;;;;;;;0.46;85.18;100469.91;4982440;28;20104;-65
2022/12/11 09:10:40;;;;;;;5.90;2.67;;;;;;;0.65;85.65;100460.81;4991063;28;20026;-65
2022/12/11 09:13:06;;;;;;;7.38;3.75;;;;;;;0.77;85.02;100465.63;4991868;28;20572;-65
2022/12/11 09:15:31;;;;;;;5.28;3.05;;;;;;;1.02;84.74;100467.78;5007132;28;20172;-65
2022/12/11 09:17:57;;;;;;;5.55;2.80;;;;;;;1.23;83.99;100460.97;4988460;28;20034;-65
2022/12/11 09:20:22;;;;;;;7.97;3.33;;;;;;;1.38;83.85;100460.63;4987513;28;20503;-65
2022/12/11 09:22:48;;;;;;;6.53;2.90;;;;;;;1.36;82.44;100454.06;4988021;28;20180;-65
2022/12/11 09:25:13;;;;;;;7.88;3.00;;;;;;;1.36;82.55;100456.69;4989073;28;20049;-65
2022/12/11 09:27:39;;;;;;;15.25;3.45;;;;;;;1.45;82.43;100458.34;5001740;28;20395;-66
2022/12/11 09:30:05;;;;;;;6.47;4.05;;;;;;;1.32;80.20;100456.53;4990417;28;20046;-65
2022/12/11 09:32:30;;;;;;;4.75;2.97;;;;;;;1.50;80.76;100450.28;4990935;28;20038;-65
2022/12/11 09:34:56;;;;;;;10.38;4.43;;;;;;;1.74;80.89;100458.75;4988954;28;20045;-65
2022/12/11 09:37:21;;;;;;;9.13;3.65;;;;;;;1.90;80.44;100455.75;4984557;28;20442;-65
2022/12/11 09:39:47;;;;;;;6.70;3.83;;;;;;;2.02;79.40;100453.31;4989938;28;20427;-65
2022/12/11 09:42:43;;;;;;;8.77;4.35;;;;;;;2.15;79.26;100441.88;4989290;28;20030;-66
2022/12/11 09:45:13;;;;;;;5.68;2.97;;;;;;;2.12;78.30;100450.44;4984461;28;20037;-65
2022/12/11 09:47:49;;;;;;;9.10;3.10;;;;;;;2.25;78.60;100446.91;5004863;28;20038;-65
2022/12/11 09:50:22;;;;;;;5.35;3.08;;;;;;;2.38;77.72;100449.47;4982054;28;20038;-66
2022/12/11 09:53:01;;;;;;;6.95;3.08;;;;;;;2.64;75.95;100446.94;4995152;23;20074;-65
2022/12/11 09:55:36;;;;;;;4.60;2.75;;;;;;;2.36;75.64;100448.22;5004897;28;20042;-65
2022/12/11 09:58:21;;;;;;;6.38;2.35;;;;;;;2.32;76.00;100447.28;4999009;28;20168;-66
2022/12/11 10:00:52;;;;;;;5.20;2.72;;;;;;;2.24;75.01;100450.66;5020048;28;20042;-64
2022/12/11 10:03:20;;;;;;;6.85;2.85;;;;;;;2.36;75.63;100453.53;5001553;28;20510;-65
2022/12/11 10:06:15;;;;;;;5.97;3.25;;;;;;;2.37;75.47;100444.47;5008164;28;20077;-65
2022/12/11 10:09:14;;;;;;;7.05;2.83;;;;;;;2.35;75.53;100444.78;4999747;28;20137;-66
2022/12/11 10:11:51;;;;;;;3.80;2.83;;;;;;;2.40;74.84;100444.66;5004517;28;20038;-64
2022/12/11 10:14:29;;;;;;;9.40;4.07;;;;;;;2.09;74.75;100443.09;5021538;28;20471;-66
2022/12/11 10:17:19;;;;;;;5.95;3.97;;;;;;;2.15;75.29;100439.22;5001170;28;20041;-66
2022/12/11 10:19:44;;;;;;;7.80;2.95;;;;;;;2.03;75.22;100439.78;4991422;28;20054;-66
2022/12/11 10:22:21;;;;;;;5.25;2.78;;;;;;;2.14;74.43;100451.69;5007571;28;20112;-66
2022/12/11 10:25:18;;;;;;;6.45;3.33;;;;;;;2.26;73.77;100443.97;4993263;28;20045;-65
2022/12/11 10:27:44;;;;;;;5.95;2.97;;;;;;;2.28;73.82;100435.69;4996780;28;20054;-65
2022/12/11 10:30:15;;;;;;;5.45;2.72;;;;;;;2.28;74.04;100439.13;5004751;28;20053;-65
2022/12/11 10:32:52;;;;;;;5.43;2.65;;;;;;;2.41;74.36;100429.50;5011921;28;20156;-65
2022/12/11 10:35:26;;;;;;;6.65;2.67;;;;;;;2.41;73.74;100424.19;5003405;28;20050;-65
2022/12/11 10:37:55;;;;;;;5.25;3.05;;;;;;;2.43;74.02;100406.06;5006529;28;20586;-66
2022/12/11 10:40:23;;;;;;;4.30;2.50;;;;;;;2.40;73.38;100406.69;5006055;28;20038;-66
2022/12/11 10:42:54;;;;;;;4.95;1.95;;;;;;;2.36;73.71;100401.19;5000711;28;20045;-65
2022/12/11 10:45:20;;;;;;;6.13;2.80;;;;;;;2.36;73.72;100405.72;4995401;28;20128;-65
2022/12/11 10:47:45;;;;;;;4.75;2.60;;;;;;;2.46;73.91;100416.84;5007638;28;20446;-66
2022/12/11 10:50:22;;;;;;;4.55;2.33;;;;;;;2.44;73.76;100403.09;5011563;28;20044;-66
2022/12/11 10:52:48;;;;;;;4.43;2.95;;;;;;;2.45;73.50;100398.56;5010620;28;20479;-64
2022/12/11 10:55:36;;;;;;;5.45;2.53;;;;;;;2.37;74.12;100401.97;5007520;28;20113;-66
2022/12/11 10:58:04;;;;;;;2.90;1.48;;;;;;;2.34;73.97;100407.91;5005241;28;20034;-66
2022/12/11 11:00:37;;;;;;;7.13;2.78;;;;;;;2.34;74.41;100402.59;4999141;28;20070;-65
2022/12/11 11:03:20;;;;;;;7.15;2.65;;;;;;;2.36;75.06;100403.06;5003499;28;20034;-65
2022/12/11 11:05:49;;;;;;;4.30;2.35;;;;;;;2.42;75.01;100389.34;5005272;28;20100;-65
2022/12/11 11:08:18;;;;;;;6.85;2.90;;;;;;;2.46;74.92;100397.47;5009535;28;20092;-65
2022/12/11 11:11:00;;;;;;;4.45;2.40;;;;;;;2.44;75.01;100400.44;5008786;28;20045;-65
2022/12/11 11:13:30;;;;;;;4.00;2.95;;;;;;;2.52;74.84;100399.69;5000826;28;20041;-65
2022/12/11 11:16:11;;;;;;;2.63;1.95;;;;;;;2.41;73.06;100413.56;5005968;28;20052;-66
2022/12/11 11:18:39;;;;;;;5.88;2.65;;;;;;;2.37;73.41;100399.31;5006854;28;20064;-65
2022/12/11 11:21:05;;;;;;;4.90;2.47;;;;;;;2.31;73.48;100409.28;5009999;28;20041;-66
2022/12/11 11:23:31;;;;;;;5.07;1.90;;;;;;;2.34;72.97;100403.34;5009674;28;20038;-66
2022/12/11 11:25:59;;;;;;;5.68;2.53;;;;;;;2.29;72.94;100397.41;5009000;28;20053;-65
2022/12/11 11:28:32;;;;;;;4.72;2.25;;;;;;;2.18;72.44;100396.09;5005668;28;21226;-66
2022/12/11 11:31:08;;;;;;;3.58;3.00;;;;;;;2.34;72.17;100389.31;5005684;28;20034;-65
2022/12/11 11:33:36;;;;;;;5.85;3.05;;;;;;;2.23;72.22;100398.63;5001021;28;20033;-65
2022/12/11 11:36:05;;;;;;;4.18;2.72;;;;;;;2.30;71.97;100385.72;5011348;28;20121;-66
2022/12/11 11:38:40;;;;;;;5.20;2.58;;;;;;;2.36;72.35;100395.09;5005663;28;20118;-65
2022/12/11 11:41:31;;;;;;;7.43;2.97;;;;;;;2.35;72.67;100382.91;5001029;28;20053;-66
2022/12/11 11:43:59;;;;;;;6.70;2.03;;;;;;;2.37;72.90;100380.72;5011085;28;20465;-65
2022/12/11 11:46:37;;;;;;;2.70;1.83;;;;;;;2.39;73.00;100374.03;4997501;28;20034;-65
2022/12/11 11:49:06;;;;;;;8.55;2.35;;;;;;;2.42;72.60;100378.72;5009707;28;20490;-65